createdAt,value
2023-04-02T00:01:39.456Z,750.63
2023-04-02T00:06:45.177Z,744.58
2023-04-02T00:11:49.984Z,749.08
2023-04-02T00:16:53.552Z,744.65
2023-04-02T00:21:57.332Z,742.72
2023-04-02T00:27:00.229Z,746.28
2023-04-02T00:32:02.302Z,740.90
2023-04-02T00:37:05.271Z,735.28
2023-04-02T00:42:07.198Z,743.35
2023-04-02T00:47:29.588Z,733.70
2023-04-02T00:52:32.335Z,735.75
2023-04-02T00:57:34.647Z,730.38
2023-04-02T01:02:40.860Z,730.10
2023-04-02T01:07:59.470Z,732.75
2023-04-02T01:13:28.730Z,731.00
2023-04-02T01:18:50.385Z,726.30
2023-04-02T01:24:18.901Z,730.53
2023-04-02T01:29:40.295Z,729.58
2023-04-02T01:34:44.717Z,728.35
2023-04-02T01:39:55.740Z,732.15
2023-04-02T01:45:07.883Z,730.95
2023-04-02T01:50:31.931Z,738.58
2023-04-02T01:55:40.216Z,731.47
2023-04-02T02:05:47.847Z,720.08
2023-04-02T02:10:50.906Z,741.90
2023-04-02T02:15:56.988Z,739.03
2023-04-02T02:21:01.201Z,739.92
2023-04-02T02:26:06.234Z,736.22
2023-04-02T02:31:18.541Z,738.33
2023-04-02T02:36:55.023Z,741.17
2023-04-02T02:42:02.728Z,742.72
2023-04-02T02:47:16.925Z,738.50
2023-04-02T02:52:27.817Z,733.15
2023-04-02T02:57:47.109Z,736.65
2023-04-02T03:02:50.091Z,733.33
2023-04-02T03:07:56.405Z,735.63
2023-04-02T03:13:12.932Z,734.47
2023-04-02T03:18:26.524Z,738.35
2023-04-02T03:23:46.231Z,733.92
2023-04-02T03:29:00.018Z,734.70
2023-04-02T03:34:26.428Z,731.83
2023-04-02T03:39:43.865Z,731.58
2023-04-02T03:45:10.910Z,724.08
2023-04-02T03:50:25.382Z,740.58
2023-04-02T03:55:35.550Z,727.95
2023-04-02T04:00:54.080Z,727.57
2023-04-02T04:06:05.329Z,727.22
2023-04-02T04:11:10.524Z,730.58
2023-04-02T04:16:20.090Z,728.92
2023-04-02T04:21:37.451Z,729.88
2023-04-02T04:27:09.541Z,731.60
2023-04-02T04:32:34.810Z,725.05
2023-04-02T04:37:49.703Z,730.60
2023-04-02T04:42:58.201Z,728.05
2023-04-02T04:48:19.120Z,728.90
2023-04-02T04:53:25.392Z,723.30
2023-04-02T04:58:50.394Z,688.83
2023-04-02T05:04:14.344Z,686.65
2023-04-02T05:09:29.539Z,700.72
2023-04-02T05:14:50.421Z,708.00
2023-04-02T05:19:57.182Z,723.03
2023-04-02T05:30:24.101Z,718.58
2023-04-02T05:35:34.708Z,717.40
2023-04-02T05:40:45.694Z,713.22
2023-04-02T05:45:54.116Z,718.45
2023-04-02T05:50:58.920Z,728.10
2023-04-02T05:56:17.085Z,723.13
2023-04-02T06:01:39.337Z,715.72
2023-04-02T06:07:12.290Z,716.45
2023-04-02T06:12:44.960Z,711.65
2023-04-02T06:17:52.644Z,713.20
2023-04-02T06:23:25.714Z,716.40
2023-04-02T06:28:46.213Z,719.03
2023-04-02T06:39:03.528Z,721.33
2023-04-02T06:44:14.372Z,716.70
2023-04-02T06:49:43.327Z,716.22
2023-04-02T06:54:47.093Z,713.45
2023-04-02T06:59:52.186Z,714.85
2023-04-02T07:05:03.619Z,720.00
2023-04-02T07:10:09.334Z,710.92
2023-04-02T07:15:16.556Z,707.25
2023-04-02T07:20:33.213Z,712.17
2023-04-02T07:25:41.070Z,708.67
2023-04-02T07:30:45.102Z,713.47
2023-04-02T07:35:47.879Z,715.33
2023-04-02T07:40:52.380Z,707.53
2023-04-02T07:45:54.283Z,705.70
2023-04-02T07:50:56.294Z,702.58
2023-04-02T07:56:03.232Z,700.30
2023-04-02T08:01:05.438Z,706.47
2023-04-02T08:06:07.405Z,707.88
2023-04-02T08:11:11.010Z,706.92
2023-04-02T08:16:13.251Z,706.60
2023-04-02T08:21:16.493Z,711.60
2023-04-02T08:26:19.557Z,713.85
2023-04-02T08:31:21.620Z,717.30
2023-04-02T08:36:33.219Z,711.45
2023-04-02T08:41:54.907Z,718.53
2023-04-02T08:47:04.574Z,717.35
2023-04-02T08:52:06.569Z,712.92
2023-04-02T08:57:26.084Z,717.88
2023-04-02T09:02:41.683Z,705.35
2023-04-02T09:07:43.560Z,713.08
2023-04-02T09:12:52.493Z,718.55
2023-04-02T09:18:04.320Z,714.45
2023-04-02T09:23:08.884Z,708.38
2023-04-02T09:28:12.001Z,720.75
2023-04-02T09:33:13.932Z,700.95
2023-04-02T09:38:24.266Z,722.03
2023-04-02T09:43:31.326Z,721.65
2023-04-02T09:48:39.425Z,726.70
2023-04-02T09:53:46.037Z,724.70
2023-04-02T09:59:13.032Z,720.88
2023-04-02T10:04:48.391Z,723.00
2023-04-02T10:10:01.709Z,730.47
2023-04-02T10:15:04.603Z,732.05
2023-04-02T10:20:20.057Z,722.95
2023-04-02T10:25:27.107Z,722.15
2023-04-02T10:30:55.834Z,727.10
2023-04-02T10:36:19.912Z,732.70
2023-04-02T10:41:57.458Z,728.95
2023-04-02T10:47:08.598Z,604.97
2023-04-02T10:52:20.051Z,650.63
2023-04-02T10:57:43.486Z,722.25
2023-04-02T11:02:55.276Z,738.60
2023-04-02T11:08:02.223Z,731.80
2023-04-02T11:13:26.215Z,734.65
2023-04-02T11:18:35.755Z,755.03
2023-04-02T11:23:59.697Z,753.03
2023-04-02T11:29:27.181Z,788.83
2023-04-02T11:34:41.296Z,792.78
2023-04-02T11:39:53.455Z,777.05
2023-04-02T11:44:58.666Z,762.25
2023-04-02T11:50:02.282Z,766.67
2023-04-02T11:55:27.385Z,751.97
2023-04-02T12:01:02.269Z,741.70
2023-04-02T12:06:19.063Z,746.63
2023-04-02T12:11:32.278Z,761.60
2023-04-02T12:16:35.415Z,765.78
2023-04-02T12:21:37.929Z,752.95
2023-04-02T12:26:42.481Z,747.40
2023-04-02T12:31:46.467Z,764.35
2023-04-02T12:36:52.928Z,754.33
2023-04-02T12:41:54.997Z,756.95
2023-04-02T12:46:58.574Z,764.78
2023-04-02T12:52:03.871Z,763.05
2023-04-02T12:57:30.843Z,762.47
2023-04-02T13:02:45.955Z,764.40
2023-04-02T13:07:48.100Z,763.08
2023-04-02T13:12:58.531Z,766.65
2023-04-02T13:18:19.449Z,767.35
2023-04-02T13:23:33.034Z,768.13
2023-04-02T13:28:34.907Z,765.85
2023-04-02T13:33:37.070Z,770.63
2023-04-02T13:38:38.904Z,766.38
2023-04-02T13:43:41.473Z,766.75
2023-04-02T13:48:43.341Z,769.80
2023-04-02T13:53:52.458Z,766.35
2023-04-02T13:58:54.365Z,774.63
2023-04-02T14:03:58.094Z,775.97
2023-04-02T14:10:00.021Z,773.53
2023-04-02T14:15:29.479Z,775.13
2023-04-02T14:20:49.165Z,773.83
2023-04-02T14:26:17.582Z,772.60
2023-04-02T14:31:43.476Z,768.70
2023-04-02T14:37:03.312Z,758.33
2023-04-02T14:42:18.742Z,768.80
2023-04-02T14:47:28.303Z,776.55
2023-04-02T14:52:35.050Z,784.60
2023-04-02T14:57:40.901Z,758.47
2023-04-02T15:02:47.216Z,757.78
2023-04-02T15:07:56.214Z,762.60
2023-04-02T15:13:00.111Z,761.22
2023-04-02T15:18:02.471Z,779.88
2023-04-02T15:23:30.418Z,698.08
2023-04-02T15:28:50.261Z,719.85
2023-04-02T15:34:12.360Z,766.05
2023-04-02T15:39:42.778Z,777.67
2023-04-02T15:45:01.190Z,749.60
2023-04-02T15:50:21.785Z,724.05
2023-04-02T15:55:49.530Z,745.65
2023-04-02T16:01:01.017Z,714.72
2023-04-02T16:06:19.383Z,731.05
2023-04-02T16:11:21.203Z,704.80
2023-04-02T16:16:36.073Z,696.65
2023-04-02T16:22:01.814Z,716.45
2023-04-02T16:27:11.721Z,663.10
2023-04-02T16:32:41.031Z,659.97
2023-04-02T16:37:50.425Z,693.30
2023-04-02T16:43:11.362Z,664.35
2023-04-02T16:48:35.752Z,662.00
2023-04-02T16:53:58.458Z,658.50
2023-04-02T16:59:12.121Z,656.83
2023-04-02T17:04:30.968Z,660.22
2023-04-02T17:09:35.938Z,653.10
2023-04-02T17:14:45.936Z,651.72
2023-04-02T17:19:50.519Z,671.17
2023-04-02T17:24:57.125Z,668.10
2023-04-02T17:30:22.577Z,637.17
2023-04-02T17:35:32.197Z,614.55
2023-04-02T17:40:40.507Z,604.60
2023-04-02T17:45:55.476Z,628.65
2023-04-02T17:51:21.723Z,632.20
2023-04-02T17:56:48.340Z,635.58
2023-04-02T18:02:01.524Z,653.35
2023-04-02T18:07:09.636Z,642.97
2023-04-02T18:12:42.490Z,617.95
2023-04-02T18:18:02.910Z,663.05
2023-04-02T18:23:35.813Z,622.00
2023-04-02T18:28:45.692Z,579.75
2023-04-02T18:34:46.249Z,610.88
2023-04-02T18:40:25.621Z,597.20
2023-04-02T18:46:05.115Z,555.03
2023-04-02T18:51:13.876Z,560.25
2023-04-02T18:56:19.978Z,562.70
2023-04-02T19:01:34.072Z,548.85
2023-04-02T19:06:41.002Z,554.45
2023-04-02T19:11:42.878Z,581.55
2023-04-02T19:16:59.818Z,480.58
2023-04-02T19:22:34.100Z,476.00
2023-04-02T19:28:00.630Z,484.55
2023-04-02T19:33:47.095Z,472.25
2023-04-02T19:39:00.863Z,490.10
2023-04-02T19:44:02.884Z,486.25
2023-04-02T19:49:23.403Z,501.55
2023-04-02T19:54:25.413Z,491.58
2023-04-02T19:59:29.359Z,492.55
2023-04-02T20:04:31.258Z,492.55
2023-04-02T20:09:33.236Z,499.67
2023-04-02T20:14:35.349Z,457.90
2023-04-02T20:19:37.265Z,479.63
2023-04-02T20:24:39.141Z,485.95
2023-04-02T20:29:44.481Z,499.30
2023-04-02T20:34:47.089Z,531.53
2023-04-02T20:39:49.022Z,594.63
2023-04-02T20:44:51.197Z,688.72
2023-04-02T20:49:53.161Z,594.15
2023-04-02T20:54:54.982Z,474.02
2023-04-02T20:59:58.800Z,470.00
2023-04-02T21:05:01.255Z,455.85
2023-04-02T21:10:04.893Z,443.88
2023-04-02T21:15:07.877Z,441.65
2023-04-02T21:20:11.437Z,421.27
2023-04-02T21:25:14.656Z,479.52
2023-04-02T21:30:16.578Z,552.67
2023-04-02T21:35:18.443Z,610.88
2023-04-02T21:40:20.288Z,550.92
2023-04-02T21:45:22.136Z,535.88
2023-04-02T21:50:24.407Z,556.50
2023-04-02T21:55:26.337Z,561.30
2023-04-02T22:00:28.638Z,653.28
2023-04-02T22:05:31.253Z,650.83
2023-04-02T22:10:33.146Z,656.65
2023-04-02T22:15:35.424Z,598.72
2023-04-02T22:20:41.136Z,667.00
2023-04-02T22:25:42.962Z,552.22
2023-04-02T22:30:44.910Z,679.60
2023-04-02T22:35:51.734Z,474.00
2023-04-02T22:41:06.380Z,472.33
2023-04-02T22:46:09.471Z,458.80
2023-04-02T22:51:16.006Z,519.05
2023-04-02T22:56:22.011Z,508.88
2023-04-02T23:01:27.919Z,507.67
2023-04-02T23:06:29.899Z,547.40
2023-04-02T23:11:32.272Z,553.75
2023-04-02T23:16:34.175Z,608.67
2023-04-02T23:21:36.134Z,609.80
2023-04-02T23:26:38.114Z,584.67
2023-04-02T23:31:40.327Z,592.35
2023-04-02T23:36:42.177Z,610.20
2023-04-02T23:41:44.068Z,669.50
2023-04-02T23:46:46.054Z,683.65
2023-04-02T23:51:47.991Z,699.20
2023-04-02T23:56:49.880Z,705.33
